sensor_id;sensor_type;location;lat;lon;timestamp;temperature;humidity
15355;DHT22;7777;52.254;9.618;2023-07-29T00:01:13;20.80;99.90
15355;DHT22;7777;52.254;9.618;2023-07-29T00:03:39;20.80;99.90
15355;DHT22;7777;52.254;9.618;2023-07-29T00:06:04;20.80;99.90
15355;DHT22;7777;52.254;9.618;2023-07-29T00:08:30;20.70;99.90
15355;DHT22;7777;52.254;9.618;2023-07-29T00:10:56;20.70;99.90
15355;DHT22;7777;52.254;9.618;2023-07-29T00:13:21;20.70;99.90
15355;DHT22;7777;52.254;9.618;2023-07-29T00:15:47;20.60;99.90
15355;DHT22;7777;52.254;9.618;2023-07-29T00:18:19;20.60;99.90
15355;DHT22;7777;52.254;9.618;2023-07-29T00:20:44;20.60;99.90
15355;DHT22;7777;52.254;9.618;2023-07-29T00:23:10;20.60;99.90
15355;DHT22;7777;52.254;9.618;2023-07-29T00:25:36;20.50;99.90
15355;DHT22;7777;52.254;9.618;2023-07-29T00:28:02;20.50;99.90
15355;DHT22;7777;52.254;9.618;2023-07-29T00:30:28;20.50;99.90
15355;DHT22;7777;52.254;9.618;2023-07-29T00:32:53;20.40;99.90
15355;DHT22;7777;52.254;9.618;2023-07-29T00:35:19;20.40;99.90
15355;DHT22;7777;52.254;9.618;2023-07-29T00:37:45;20.40;99.90
15355;DHT22;7777;52.254;9.618;2023-07-29T00:40:20;20.30;99.90
15355;DHT22;7777;52.254;9.618;2023-07-29T00:42:46;20.30;99.90
15355;DHT22;7777;52.254;9.618;2023-07-29T00:45:12;20.30;99.90
15355;DHT22;7777;52.254;9.618;2023-07-29T00:47:38;20.20;99.90
15355;DHT22;7777;52.254;9.618;2023-07-29T00:50:06;20.20;99.90
15355;DHT22;7777;52.254;9.618;2023-07-29T00:52:32;20.20;99.90
15355;DHT22;7777;52.254;9.618;2023-07-29T00:54:58;20.10;99.90
15355;DHT22;7777;52.254;9.618;2023-07-29T00:57:24;20.10;99.90
15355;DHT22;7777;52.254;9.618;2023-07-29T00:59:51;20.10;99.90
15355;DHT22;7777;52.254;9.618;2023-07-29T01:02:17;20.00;99.90
15355;DHT22;7777;52.254;9.618;2023-07-29T01:04:43;20.00;99.90
15355;DHT22;7777;52.254;9.618;2023-07-29T01:07:23;20.00;99.90
15355;DHT22;7777;52.254;9.618;2023-07-29T01:10:03;20.00;99.90
15355;DHT22;7777;52.254;9.618;2023-07-29T01:16:00;19.90;99.90
15355;DHT22;7777;52.254;9.618;2023-07-29T01:18:35;19.90;99.90
15355;DHT22;7777;52.254;9.618;2023-07-29T01:21:08;19.80;99.90
15355;DHT22;7777;52.254;9.618;2023-07-29T01:23:34;19.80;99.90
15355;DHT22;7777;52.254;9.618;2023-07-29T01:26:02;19.70;99.90
15355;DHT22;7777;52.254;9.618;2023-07-29T01:28:29;19.70;99.90
15355;DHT22;7777;52.254;9.618;2023-07-29T01:31:03;19.70;99.90
15355;DHT22;7777;52.254;9.618;2023-07-29T01:34:16;19.70;99.90
15355;DHT22;7777;52.254;9.618;2023-07-29T01:36:45;19.70;99.90
15355;DHT22;7777;52.254;9.618;2023-07-29T01:39:12;19.60;99.90
15355;DHT22;7777;52.254;9.618;2023-07-29T01:41:40;19.60;99.90
15355;DHT22;7777;52.254;9.618;2023-07-29T01:44:06;19.60;99.90
15355;DHT22;7777;52.254;9.618;2023-07-29T01:46:37;19.60;99.90
15355;DHT22;7777;52.254;9.618;2023-07-29T01:49:02;19.60;99.90
15355;DHT22;7777;52.254;9.618;2023-07-29T01:51:28;19.60;99.90
15355;DHT22;7777;52.254;9.618;2023-07-29T01:53:54;19.60;99.90
15355;DHT22;7777;52.254;9.618;2023-07-29T01:56:21;19.60;99.90
15355;DHT22;7777;52.254;9.618;2023-07-29T01:58:47;19.60;99.90
15355;DHT22;7777;52.254;9.618;2023-07-29T02:01:12;19.60;99.90
15355;DHT22;7777;52.254;9.618;2023-07-29T02:03:39;19.60;99.90
15355;DHT22;7777;52.254;9.618;2023-07-29T02:06:04;19.60;99.90
15355;DHT22;7777;52.254;9.618;2023-07-29T02:08:30;19.60;99.90
15355;DHT22;7777;52.254;9.618;2023-07-29T02:10:56;19.60;99.90
15355;DHT22;7777;52.254;9.618;2023-07-29T02:13:22;19.60;99.90
15355;DHT22;7777;52.254;9.618;2023-07-29T02:15:47;19.60;99.90
15355;DHT22;7777;52.254;9.618;2023-07-29T02:18:13;19.60;99.90
15355;DHT22;7777;52.254;9.618;2023-07-29T02:20:39;19.60;99.90
15355;DHT22;7777;52.254;9.618;2023-07-29T02:23:04;19.60;99.90
15355;DHT22;7777;52.254;9.618;2023-07-29T02:25:30;19.60;99.90
15355;DHT22;7777;52.254;9.618;2023-07-29T02:27:56;19.60;99.90
15355;DHT22;7777;52.254;9.618;2023-07-29T02:30:22;19.60;99.90
15355;DHT22;7777;52.254;9.618;2023-07-29T02:32:47;19.60;99.90
15355;DHT22;7777;52.254;9.618;2023-07-29T02:35:13;19.60;99.90
15355;DHT22;7777;52.254;9.618;2023-07-29T02:37:39;19.60;99.90
15355;DHT22;7777;52.254;9.618;2023-07-29T02:40:05;19.60;99.90
15355;DHT22;7777;52.254;9.618;2023-07-29T02:42:31;19.70;99.90
15355;DHT22;7777;52.254;9.618;2023-07-29T02:44:57;19.70;99.90
15355;DHT22;7777;52.254;9.618;2023-07-29T02:47:22;19.70;99.90
15355;DHT22;7777;52.254;9.618;2023-07-29T02:49:48;19.70;99.90
15355;DHT22;7777;52.254;9.618;2023-07-29T02:52:14;19.70;99.90
15355;DHT22;7777;52.254;9.618;2023-07-29T02:54:40;19.70;99.90
15355;DHT22;7777;52.254;9.618;2023-07-29T02:57:05;19.70;99.90
15355;DHT22;7777;52.254;9.618;2023-07-29T02:59:31;19.70;99.90
15355;DHT22;7777;52.254;9.618;2023-07-29T03:01:57;19.70;99.90
15355;DHT22;7777;52.254;9.618;2023-07-29T03:04:22;19.70;99.90
15355;DHT22;7777;52.254;9.618;2023-07-29T03:06:48;19.70;99.90
15355;DHT22;7777;52.254;9.618;2023-07-29T03:09:14;19.70;99.90
15355;DHT22;7777;52.254;9.618;2023-07-29T03:11:40;19.70;99.90
15355;DHT22;7777;52.254;9.618;2023-07-29T03:14:06;19.70;99.90
15355;DHT22;7777;52.254;9.618;2023-07-29T03:16:31;19.70;99.90
15355;DHT22;7777;52.254;9.618;2023-07-29T03:18:57;19.70;99.90
15355;DHT22;7777;52.254;9.618;2023-07-29T03:21:28;19.70;99.90
15355;DHT22;7777;52.254;9.618;2023-07-29T03:23:54;19.80;99.90
15355;DHT22;7777;52.254;9.618;2023-07-29T03:26:19;19.80;99.90
15355;DHT22;7777;52.254;9.618;2023-07-29T03:28:45;19.80;99.90
15355;DHT22;7777;52.254;9.618;2023-07-29T03:31:11;19.80;99.90
15355;DHT22;7777;52.254;9.618;2023-07-29T03:33:37;19.90;99.90
15355;DHT22;7777;52.254;9.618;2023-07-29T03:36:03;19.90;99.90
15355;DHT22;7777;52.254;9.618;2023-07-29T03:38:29;19.90;99.90
15355;DHT22;7777;52.254;9.618;2023-07-29T03:40:56;19.90;99.90
15355;DHT22;7777;52.254;9.618;2023-07-29T03:43:22;19.90;99.90
15355;DHT22;7777;52.254;9.618;2023-07-29T03:45:48;19.90;99.90
15355;DHT22;7777;52.254;9.618;2023-07-29T03:48:14;19.90;99.90
15355;DHT22;7777;52.254;9.618;2023-07-29T03:50:39;19.90;99.90
15355;DHT22;7777;52.254;9.618;2023-07-29T03:53:05;19.90;99.90
15355;DHT22;7777;52.254;9.618;2023-07-29T03:55:32;19.90;99.90
15355;DHT22;7777;52.254;9.618;2023-07-29T03:57:59;19.90;99.90
15355;DHT22;7777;52.254;9.618;2023-07-29T04:00:25;19.90;99.90
15355;DHT22;7777;52.254;9.618;2023-07-29T04:02:52;19.90;99.90
15355;DHT22;7777;52.254;9.618;2023-07-29T04:05:18;19.90;99.90
15355;DHT22;7777;52.254;9.618;2023-07-29T04:07:44;19.90;99.90
15355;DHT22;7777;52.254;9.618;2023-07-29T04:10:10;19.90;99.90
15355;DHT22;7777;52.254;9.618;2023-07-29T04:12:36;20.00;99.90
15355;DHT22;7777;52.254;9.618;2023-07-29T04:15:02;19.90;99.90
15355;DHT22;7777;52.254;9.618;2023-07-29T04:17:28;19.90;99.90
15355;DHT22;7777;52.254;9.618;2023-07-29T04:19:54;20.00;99.90
15355;DHT22;7777;52.254;9.618;2023-07-29T04:22:19;20.00;99.90
15355;DHT22;7777;52.254;9.618;2023-07-29T04:24:45;20.00;99.90
15355;DHT22;7777;52.254;9.618;2023-07-29T04:27:11;20.00;99.90
15355;DHT22;7777;52.254;9.618;2023-07-29T04:29:37;20.00;99.90
15355;DHT22;7777;52.254;9.618;2023-07-29T04:32:04;20.00;99.90
15355;DHT22;7777;52.254;9.618;2023-07-29T04:34:30;20.00;99.90
15355;DHT22;7777;52.254;9.618;2023-07-29T04:36:56;20.00;99.90
15355;DHT22;7777;52.254;9.618;2023-07-29T04:39:22;20.00;99.90
15355;DHT22;7777;52.254;9.618;2023-07-29T04:41:48;20.00;99.90
15355;DHT22;7777;52.254;9.618;2023-07-29T04:44:13;20.00;99.90
15355;DHT22;7777;52.254;9.618;2023-07-29T04:46:39;20.00;99.90
15355;DHT22;7777;52.254;9.618;2023-07-29T04:49:05;20.00;99.90
15355;DHT22;7777;52.254;9.618;2023-07-29T04:51:31;20.00;99.90
15355;DHT22;7777;52.254;9.618;2023-07-29T04:53:57;20.00;99.90
15355;DHT22;7777;52.254;9.618;2023-07-29T04:56:23;20.10;99.90
15355;DHT22;7777;52.254;9.618;2023-07-29T04:58:50;20.10;99.90
15355;DHT22;7777;52.254;9.618;2023-07-29T05:01:15;20.00;99.90
15355;DHT22;7777;52.254;9.618;2023-07-29T05:03:41;20.10;99.90
15355;DHT22;7777;52.254;9.618;2023-07-29T05:06:07;20.10;99.90
15355;DHT22;7777;52.254;9.618;2023-07-29T05:08:33;20.10;99.90
15355;DHT22;7777;52.254;9.618;2023-07-29T05:10:58;20.10;99.90
15355;DHT22;7777;52.254;9.618;2023-07-29T05:13:24;20.10;99.90
15355;DHT22;7777;52.254;9.618;2023-07-29T05:15:50;20.10;99.90
15355;DHT22;7777;52.254;9.618;2023-07-29T05:18:16;20.10;99.90
15355;DHT22;7777;52.254;9.618;2023-07-29T05:20:42;20.10;99.90
15355;DHT22;7777;52.254;9.618;2023-07-29T05:23:08;20.10;99.90
15355;DHT22;7777;52.254;9.618;2023-07-29T05:25:34;20.10;99.90
15355;DHT22;7777;52.254;9.618;2023-07-29T05:28:05;20.10;99.90
15355;DHT22;7777;52.254;9.618;2023-07-29T05:30:32;20.10;99.90
15355;DHT22;7777;52.254;9.618;2023-07-29T05:33:05;20.10;99.90
15355;DHT22;7777;52.254;9.618;2023-07-29T05:35:33;20.10;99.90
15355;DHT22;7777;52.254;9.618;2023-07-29T05:37:58;20.10;99.90
15355;DHT22;7777;52.254;9.618;2023-07-29T05:40:24;20.10;99.90
15355;DHT22;7777;52.254;9.618;2023-07-29T05:42:50;20.10;99.90
15355;DHT22;7777;52.254;9.618;2023-07-29T05:45:15;20.10;99.90
15355;DHT22;7777;52.254;9.618;2023-07-29T05:47:41;20.10;99.90
15355;DHT22;7777;52.254;9.618;2023-07-29T05:50:08;20.10;99.90
15355;DHT22;7777;52.254;9.618;2023-07-29T05:52:34;20.20;99.90
15355;DHT22;7777;52.254;9.618;2023-07-29T05:55:00;20.20;99.90
15355;DHT22;7777;52.254;9.618;2023-07-29T05:57:26;20.20;99.90
15355;DHT22;7777;52.254;9.618;2023-07-29T05:59:52;20.20;99.90
15355;DHT22;7777;52.254;9.618;2023-07-29T06:02:17;20.20;99.90
15355;DHT22;7777;52.254;9.618;2023-07-29T06:04:43;20.20;99.90
15355;DHT22;7777;52.254;9.618;2023-07-29T06:07:09;20.20;99.90
15355;DHT22;7777;52.254;9.618;2023-07-29T06:09:35;20.20;99.90
15355;DHT22;7777;52.254;9.618;2023-07-29T06:12:03;20.20;99.90
15355;DHT22;7777;52.254;9.618;2023-07-29T06:14:29;20.20;99.90
15355;DHT22;7777;52.254;9.618;2023-07-29T06:16:55;20.30;99.90
15355;DHT22;7777;52.254;9.618;2023-07-29T06:19:21;20.20;99.90
15355;DHT22;7777;52.254;9.618;2023-07-29T06:21:46;20.20;99.90
15355;DHT22;7777;52.254;9.618;2023-07-29T06:24:12;20.20;99.90
15355;DHT22;7777;52.254;9.618;2023-07-29T06:26:38;20.30;99.90
15355;DHT22;7777;52.254;9.618;2023-07-29T06:29:07;20.30;99.90
15355;DHT22;7777;52.254;9.618;2023-07-29T06:31:33;20.30;99.90
15355;DHT22;7777;52.254;9.618;2023-07-29T06:33:59;20.30;99.90
15355;DHT22;7777;52.254;9.618;2023-07-29T06:36:24;20.30;99.90
15355;DHT22;7777;52.254;9.618;2023-07-29T06:38:50;20.30;99.90
15355;DHT22;7777;52.254;9.618;2023-07-29T06:41:16;20.30;99.90
15355;DHT22;7777;52.254;9.618;2023-07-29T06:43:42;20.30;99.90
15355;DHT22;7777;52.254;9.618;2023-07-29T06:46:08;20.40;99.90
15355;DHT22;7777;52.254;9.618;2023-07-29T06:48:34;20.40;99.90
15355;DHT22;7777;52.254;9.618;2023-07-29T06:50:59;20.40;99.90
15355;DHT22;7777;52.254;9.618;2023-07-29T06:53:26;20.40;99.90
15355;DHT22;7777;52.254;9.618;2023-07-29T06:56:01;20.50;99.90
15355;DHT22;7777;52.254;9.618;2023-07-29T06:58:27;20.50;99.90
15355;DHT22;7777;52.254;9.618;2023-07-29T07:00:53;20.50;99.90
15355;DHT22;7777;52.254;9.618;2023-07-29T07:03:18;20.50;99.90
15355;DHT22;7777;52.254;9.618;2023-07-29T07:05:44;20.60;99.90
15355;DHT22;7777;52.254;9.618;2023-07-29T07:08:10;20.60;99.90
15355;DHT22;7777;52.254;9.618;2023-07-29T07:10:36;20.60;99.90
15355;DHT22;7777;52.254;9.618;2023-07-29T07:13:02;20.60;99.90
15355;DHT22;7777;52.254;9.618;2023-07-29T07:15:28;20.60;99.90
15355;DHT22;7777;52.254;9.618;2023-07-29T07:17:53;20.60;99.90
15355;DHT22;7777;52.254;9.618;2023-07-29T07:20:19;20.60;99.90
15355;DHT22;7777;52.254;9.618;2023-07-29T07:22:45;20.70;99.90
15355;DHT22;7777;52.254;9.618;2023-07-29T07:25:10;20.70;99.90
15355;DHT22;7777;52.254;9.618;2023-07-29T07:27:37;20.70;99.90
15355;DHT22;7777;52.254;9.618;2023-07-29T07:30:03;20.80;99.90
15355;DHT22;7777;52.254;9.618;2023-07-29T07:32:29;20.80;99.90
15355;DHT22;7777;52.254;9.618;2023-07-29T07:34:54;20.80;99.90
15355;DHT22;7777;52.254;9.618;2023-07-29T07:37:20;20.80;99.90
15355;DHT22;7777;52.254;9.618;2023-07-29T07:39:46;20.80;99.90
15355;DHT22;7777;52.254;9.618;2023-07-29T07:42:12;20.80;99.90
15355;DHT22;7777;52.254;9.618;2023-07-29T07:44:38;20.90;99.90
15355;DHT22;7777;52.254;9.618;2023-07-29T07:47:03;20.90;99.90
15355;DHT22;7777;52.254;9.618;2023-07-29T07:49:29;20.90;99.90
15355;DHT22;7777;52.254;9.618;2023-07-29T07:51:55;20.90;99.90
15355;DHT22;7777;52.254;9.618;2023-07-29T07:54:21;21.00;99.90
15355;DHT22;7777;52.254;9.618;2023-07-29T07:56:46;21.00;99.90
15355;DHT22;7777;52.254;9.618;2023-07-29T07:59:12;21.00;99.90
15355;DHT22;7777;52.254;9.618;2023-07-29T08:01:38;21.10;99.90
15355;DHT22;7777;52.254;9.618;2023-07-29T08:04:05;21.10;99.90
15355;DHT22;7777;52.254;9.618;2023-07-29T08:06:32;21.10;99.90
15355;DHT22;7777;52.254;9.618;2023-07-29T08:08:58;21.10;99.90
15355;DHT22;7777;52.254;9.618;2023-07-29T08:11:24;21.20;99.90
15355;DHT22;7777;52.254;9.618;2023-07-29T08:13:51;21.20;99.90
15355;DHT22;7777;52.254;9.618;2023-07-29T08:16:16;21.20;99.90
15355;DHT22;7777;52.254;9.618;2023-07-29T08:18:59;21.20;99.90
15355;DHT22;7777;52.254;9.618;2023-07-29T08:21:35;21.30;99.90
15355;DHT22;7777;52.254;9.618;2023-07-29T08:24:01;21.30;99.90
15355;DHT22;7777;52.254;9.618;2023-07-29T08:26:27;21.30;99.90
15355;DHT22;7777;52.254;9.618;2023-07-29T08:28:53;21.30;99.90
15355;DHT22;7777;52.254;9.618;2023-07-29T08:31:19;21.30;99.90
15355;DHT22;7777;52.254;9.618;2023-07-29T08:33:44;21.40;99.90
15355;DHT22;7777;52.254;9.618;2023-07-29T08:36:10;21.30;99.90
15355;DHT22;7777;52.254;9.618;2023-07-29T08:38:36;21.40;99.90
15355;DHT22;7777;52.254;9.618;2023-07-29T08:41:20;21.30;99.90
15355;DHT22;7777;52.254;9.618;2023-07-29T08:43:56;21.40;99.90
15355;DHT22;7777;52.254;9.618;2023-07-29T08:46:26;21.30;99.90
15355;DHT22;7777;52.254;9.618;2023-07-29T08:48:52;21.40;99.90
15355;DHT22;7777;52.254;9.618;2023-07-29T08:51:19;21.40;99.90
15355;DHT22;7777;52.254;9.618;2023-07-29T08:53:47;21.30;99.90
15355;DHT22;7777;52.254;9.618;2023-07-29T08:56:15;21.30;99.90
15355;DHT22;7777;52.254;9.618;2023-07-29T08:58:41;21.40;99.90
15355;DHT22;7777;52.254;9.618;2023-07-29T09:01:07;21.40;99.90
15355;DHT22;7777;52.254;9.618;2023-07-29T09:03:33;21.40;99.90
15355;DHT22;7777;52.254;9.618;2023-07-29T09:05:59;21.40;99.90
15355;DHT22;7777;52.254;9.618;2023-07-29T09:08:28;21.50;99.90
15355;DHT22;7777;52.254;9.618;2023-07-29T09:10:54;21.50;99.90
15355;DHT22;7777;52.254;9.618;2023-07-29T09:13:21;21.60;99.90
15355;DHT22;7777;52.254;9.618;2023-07-29T09:15:47;21.60;99.90
15355;DHT22;7777;52.254;9.618;2023-07-29T09:18:18;21.70;99.90
15355;DHT22;7777;52.254;9.618;2023-07-29T09:20:49;21.70;99.90
15355;DHT22;7777;52.254;9.618;2023-07-29T09:23:16;21.80;99.90
15355;DHT22;7777;52.254;9.618;2023-07-29T09:25:42;21.80;99.90
15355;DHT22;7777;52.254;9.618;2023-07-29T09:28:11;21.80;99.90
15355;DHT22;7777;52.254;9.618;2023-07-29T09:30:39;21.90;99.90
15355;DHT22;7777;52.254;9.618;2023-07-29T09:33:06;21.90;99.90
15355;DHT22;7777;52.254;9.618;2023-07-29T09:35:36;21.90;99.90
15355;DHT22;7777;52.254;9.618;2023-07-29T09:38:04;21.90;99.90
15355;DHT22;7777;52.254;9.618;2023-07-29T09:40:35;21.90;99.90
15355;DHT22;7777;52.254;9.618;2023-07-29T09:43:01;21.90;99.90
15355;DHT22;7777;52.254;9.618;2023-07-29T09:45:29;21.90;99.90
15355;DHT22;7777;52.254;9.618;2023-07-29T09:47:57;21.90;99.90
15355;DHT22;7777;52.254;9.618;2023-07-29T09:50:24;22.00;99.90
15355;DHT22;7777;52.254;9.618;2023-07-29T09:52:52;21.90;99.90
15355;DHT22;7777;52.254;9.618;2023-07-29T09:55:19;21.90;99.90
15355;DHT22;7777;52.254;9.618;2023-07-29T09:57:57;21.90;99.90
15355;DHT22;7777;52.254;9.618;2023-07-29T10:00:27;21.90;99.90
15355;DHT22;7777;52.254;9.618;2023-07-29T10:02:54;21.90;99.90
15355;DHT22;7777;52.254;9.618;2023-07-29T10:05:22;21.90;99.90
15355;DHT22;7777;52.254;9.618;2023-07-29T10:07:49;21.90;99.90
15355;DHT22;7777;52.254;9.618;2023-07-29T10:10:16;21.90;99.90
15355;DHT22;7777;52.254;9.618;2023-07-29T10:12:43;21.90;99.90
15355;DHT22;7777;52.254;9.618;2023-07-29T10:15:09;21.90;99.90
15355;DHT22;7777;52.254;9.618;2023-07-29T10:17:37;22.00;99.90
15355;DHT22;7777;52.254;9.618;2023-07-29T10:20:07;22.00;99.90
15355;DHT22;7777;52.254;9.618;2023-07-29T10:22:39;22.00;99.90
15355;DHT22;7777;52.254;9.618;2023-07-29T10:25:18;22.10;99.90
15355;DHT22;7777;52.254;9.618;2023-07-29T10:27:48;22.20;99.90
15355;DHT22;7777;52.254;9.618;2023-07-29T10:30:15;22.30;99.90
15355;DHT22;7777;52.254;9.618;2023-07-29T10:32:45;22.30;99.90
15355;DHT22;7777;52.254;9.618;2023-07-29T10:35:13;22.40;99.90
15355;DHT22;7777;52.254;9.618;2023-07-29T10:37:39;22.50;99.90
15355;DHT22;7777;52.254;9.618;2023-07-29T10:40:11;22.60;99.90
15355;DHT22;7777;52.254;9.618;2023-07-29T10:42:38;22.70;99.90
15355;DHT22;7777;52.254;9.618;2023-07-29T10:45:24;22.80;99.90
15355;DHT22;7777;52.254;9.618;2023-07-29T10:47:50;22.90;99.90
15355;DHT22;7777;52.254;9.618;2023-07-29T10:50:20;23.00;99.90
15355;DHT22;7777;52.254;9.618;2023-07-29T10:52:53;23.20;99.90
15355;DHT22;7777;52.254;9.618;2023-07-29T10:55:35;23.30;99.90
15355;DHT22;7777;52.254;9.618;2023-07-29T10:58:13;23.40;99.90
15355;DHT22;7777;52.254;9.618;2023-07-29T11:00:49;23.40;99.90
15355;DHT22;7777;52.254;9.618;2023-07-29T11:03:14;23.50;99.90
15355;DHT22;7777;52.254;9.618;2023-07-29T11:05:48;23.50;99.90
15355;DHT22;7777;52.254;9.618;2023-07-29T11:08:31;23.60;99.90
15355;DHT22;7777;52.254;9.618;2023-07-29T11:11:02;23.60;99.90
15355;DHT22;7777;52.254;9.618;2023-07-29T11:13:30;23.70;99.90
15355;DHT22;7777;52.254;9.618;2023-07-29T11:15:58;23.70;99.90
15355;DHT22;7777;52.254;9.618;2023-07-29T11:18:34;23.70;99.90
15355;DHT22;7777;52.254;9.618;2023-07-29T11:21:04;23.70;99.90
15355;DHT22;7777;52.254;9.618;2023-07-29T11:23:34;23.70;99.90
15355;DHT22;7777;52.254;9.618;2023-07-29T11:26:02;23.70;99.90
15355;DHT22;7777;52.254;9.618;2023-07-29T11:28:29;23.70;99.90
15355;DHT22;7777;52.254;9.618;2023-07-29T11:30:56;23.70;99.90
15355;DHT22;7777;52.254;9.618;2023-07-29T11:33:25;23.70;99.90
15355;DHT22;7777;52.254;9.618;2023-07-29T11:35:54;23.70;99.90
15355;DHT22;7777;52.254;9.618;2023-07-29T11:38:21;23.70;99.90
15355;DHT22;7777;52.254;9.618;2023-07-29T11:40:58;23.80;99.90
15355;DHT22;7777;52.254;9.618;2023-07-29T11:43:25;23.90;99.90
15355;DHT22;7777;52.254;9.618;2023-07-29T11:45:52;24.00;99.90
15355;DHT22;7777;52.254;9.618;2023-07-29T11:48:26;24.10;99.90
15355;DHT22;7777;52.254;9.618;2023-07-29T11:50:53;24.10;99.90
15355;DHT22;7777;52.254;9.618;2023-07-29T11:53:20;24.30;99.90
15355;DHT22;7777;52.254;9.618;2023-07-29T11:55:53;24.40;99.90
15355;DHT22;7777;52.254;9.618;2023-07-29T11:58:18;24.40;99.90
15355;DHT22;7777;52.254;9.618;2023-07-29T12:00:44;24.50;99.90
15355;DHT22;7777;52.254;9.618;2023-07-29T12:03:11;24.60;99.90
15355;DHT22;7777;52.254;9.618;2023-07-29T12:05:37;24.70;99.90
15355;DHT22;7777;52.254;9.618;2023-07-29T12:08:03;24.70;99.90
15355;DHT22;7777;52.254;9.618;2023-07-29T12:10:30;24.70;99.90
15355;DHT22;7777;52.254;9.618;2023-07-29T12:12:56;24.70;99.90
15355;DHT22;7777;52.254;9.618;2023-07-29T12:15:29;24.70;99.90
15355;DHT22;7777;52.254;9.618;2023-07-29T12:17:59;24.70;99.50
15355;DHT22;7777;52.254;9.618;2023-07-29T12:20:26;24.80;99.90
15355;DHT22;7777;52.254;9.618;2023-07-29T12:22:57;24.80;99.70
15355;DHT22;7777;52.254;9.618;2023-07-29T12:25:25;24.90;99.30
15355;DHT22;7777;52.254;9.618;2023-07-29T12:27:51;24.90;99.90
15355;DHT22;7777;52.254;9.618;2023-07-29T12:30:21;24.90;99.90
15355;DHT22;7777;52.254;9.618;2023-07-29T12:32:47;24.90;99.90
15355;DHT22;7777;52.254;9.618;2023-07-29T12:35:14;25.00;99.90
15355;DHT22;7777;52.254;9.618;2023-07-29T12:37:40;25.10;99.90
15355;DHT22;7777;52.254;9.618;2023-07-29T12:40:30;25.20;99.70
15355;DHT22;7777;52.254;9.618;2023-07-29T12:42:55;25.20;98.90
15355;DHT22;7777;52.254;9.618;2023-07-29T12:45:21;25.20;99.20
15355;DHT22;7777;52.254;9.618;2023-07-29T12:47:52;25.30;98.40
15355;DHT22;7777;52.254;9.618;2023-07-29T12:50:18;25.40;99.50
15355;DHT22;7777;52.254;9.618;2023-07-29T12:52:43;25.40;98.90
15355;DHT22;7777;52.254;9.618;2023-07-29T12:55:09;25.50;99.60
15355;DHT22;7777;52.254;9.618;2023-07-29T12:57:39;25.50;98.90
15355;DHT22;7777;52.254;9.618;2023-07-29T13:00:07;25.50;98.60
15355;DHT22;7777;52.254;9.618;2023-07-29T13:02:34;25.60;99.20
15355;DHT22;7777;52.254;9.618;2023-07-29T13:05:09;25.60;97.60
15355;DHT22;7777;52.254;9.618;2023-07-29T13:07:36;25.60;99.00
15355;DHT22;7777;52.254;9.618;2023-07-29T13:10:03;25.80;99.00
15355;DHT22;7777;52.254;9.618;2023-07-29T13:12:29;25.80;99.40
15355;DHT22;7777;52.254;9.618;2023-07-29T13:14:55;25.90;99.70
15355;DHT22;7777;52.254;9.618;2023-07-29T13:17:22;26.10;99.90
15355;DHT22;7777;52.254;9.618;2023-07-29T13:19:48;26.10;99.90
15355;DHT22;7777;52.254;9.618;2023-07-29T13:22:14;26.20;99.80
15355;DHT22;7777;52.254;9.618;2023-07-29T13:24:40;26.20;99.50
15355;DHT22;7777;52.254;9.618;2023-07-29T13:27:06;26.30;99.20
15355;DHT22;7777;52.254;9.618;2023-07-29T13:29:32;26.20;98.80
15355;DHT22;7777;52.254;9.618;2023-07-29T13:31:57;26.20;98.50
15355;DHT22;7777;52.254;9.618;2023-07-29T13:34:23;26.20;98.20
15355;DHT22;7777;52.254;9.618;2023-07-29T13:36:49;26.10;98.40
15355;DHT22;7777;52.254;9.618;2023-07-29T13:39:15;26.10;98.80
15355;DHT22;7777;52.254;9.618;2023-07-29T13:41:41;26.00;98.60
15355;DHT22;7777;52.254;9.618;2023-07-29T13:44:07;26.00;98.30
15355;DHT22;7777;52.254;9.618;2023-07-29T13:46:33;25.90;98.60
15355;DHT22;7777;52.254;9.618;2023-07-29T13:48:58;25.80;97.40
15355;DHT22;7777;52.254;9.618;2023-07-29T13:51:24;25.80;98.70
15355;DHT22;7777;52.254;9.618;2023-07-29T13:53:50;25.80;98.40
15355;DHT22;7777;52.254;9.618;2023-07-29T13:56:16;25.80;98.70
15355;DHT22;7777;52.254;9.618;2023-07-29T13:58:41;25.80;98.50
15355;DHT22;7777;52.254;9.618;2023-07-29T14:01:07;25.70;97.50
15355;DHT22;7777;52.254;9.618;2023-07-29T14:03:33;25.70;98.70
15355;DHT22;7777;52.254;9.618;2023-07-29T14:05:59;25.70;98.00
15355;DHT22;7777;52.254;9.618;2023-07-29T14:08:24;25.70;97.80
15355;DHT22;7777;52.254;9.618;2023-07-29T14:10:50;25.70;98.10
15355;DHT22;7777;52.254;9.618;2023-07-29T14:13:16;25.70;98.10
15355;DHT22;7777;52.254;9.618;2023-07-29T14:15:41;25.80;98.70
15355;DHT22;7777;52.254;9.618;2023-07-29T14:18:07;25.80;98.70
15355;DHT22;7777;52.254;9.618;2023-07-29T14:20:33;25.80;98.60
15355;DHT22;7777;52.254;9.618;2023-07-29T14:22:59;25.80;98.50
15355;DHT22;7777;52.254;9.618;2023-07-29T14:25:25;25.80;98.40
15355;DHT22;7777;52.254;9.618;2023-07-29T14:27:50;25.80;98.50
15355;DHT22;7777;52.254;9.618;2023-07-29T14:30:16;25.80;97.80
15355;DHT22;7777;52.254;9.618;2023-07-29T14:32:42;25.70;98.50
15355;DHT22;7777;52.254;9.618;2023-07-29T14:35:08;25.70;98.40
15355;DHT22;7777;52.254;9.618;2023-07-29T14:37:35;25.70;98.50
15355;DHT22;7777;52.254;9.618;2023-07-29T14:40:01;25.70;98.70
15355;DHT22;7777;52.254;9.618;2023-07-29T14:42:27;25.70;98.40
15355;DHT22;7777;52.254;9.618;2023-07-29T14:44:53;25.60;98.30
15355;DHT22;7777;52.254;9.618;2023-07-29T14:47:19;25.60;98.50
15355;DHT22;7777;52.254;9.618;2023-07-29T14:49:45;25.60;97.20
15355;DHT22;7777;52.254;9.618;2023-07-29T14:52:11;25.60;98.30
15355;DHT22;7777;52.254;9.618;2023-07-29T14:54:37;25.70;98.70
15355;DHT22;7777;52.254;9.618;2023-07-29T14:57:04;25.70;98.20
15355;DHT22;7777;52.254;9.618;2023-07-29T14:59:31;25.70;98.30
15355;DHT22;7777;52.254;9.618;2023-07-29T15:01:57;25.70;97.60
15355;DHT22;7777;52.254;9.618;2023-07-29T15:04:23;25.60;98.10
15355;DHT22;7777;52.254;9.618;2023-07-29T15:06:48;25.60;97.70
15355;DHT22;7777;52.254;9.618;2023-07-29T15:09:14;25.60;97.80
15355;DHT22;7777;52.254;9.618;2023-07-29T15:11:40;25.50;97.70
15355;DHT22;7777;52.254;9.618;2023-07-29T15:14:06;25.50;97.60
15355;DHT22;7777;52.254;9.618;2023-07-29T15:16:32;25.50;97.50
15355;DHT22;7777;52.254;9.618;2023-07-29T15:19:01;25.50;97.20
15355;DHT22;7777;52.254;9.618;2023-07-29T15:21:34;25.50;97.60
15355;DHT22;7777;52.254;9.618;2023-07-29T15:24:03;25.40;97.40
15355;DHT22;7777;52.254;9.618;2023-07-29T15:26:38;25.40;97.30
15355;DHT22;7777;52.254;9.618;2023-07-29T15:29:03;25.30;97.00
15355;DHT22;7777;52.254;9.618;2023-07-29T15:31:33;25.30;97.60
15355;DHT22;7777;52.254;9.618;2023-07-29T15:33:59;25.30;97.80
15355;DHT22;7777;52.254;9.618;2023-07-29T15:36:25;25.30;98.00
15355;DHT22;7777;52.254;9.618;2023-07-29T15:38:51;25.30;97.30
15355;DHT22;7777;52.254;9.618;2023-07-29T15:41:16;25.20;97.50
15355;DHT22;7777;52.254;9.618;2023-07-29T15:43:42;25.20;97.10
15355;DHT22;7777;52.254;9.618;2023-07-29T15:46:08;25.10;97.20
15355;DHT22;7777;52.254;9.618;2023-07-29T15:48:34;25.10;96.40